Terminal Aerodrome Forecast
Issued by NWS Cleveland, OH

Home | Current Version | Previous Version | Graphics & Text | Print | Product List | Glossary On
Versions: 1 2 3 4 5 6 7 8 9 10 11 12 13 14 15 16 17 18 19
000
FTUS41 KCLE 301100
TAFMFD
TAF
KMFD 301120Z 3012/0112 34010KT P6SM -SHRA OVC035
      TEMPO 3012/3014 3SM SHRA BKN008 OVC012
     FM301800 36012KT P6SM VCSH OVC025
     FM010100 35007KT P6SM OVC007
     FM010900 34007KT P6SM SCT050=

USA.gov is the U.S. government's official web portal to all federal, state and local government web resources and services.